Terminal Aerodrome Forecast
Issued by NWS

Home | Current Version | Previous Version | Text Only | Print | Product List | Glossary On
Versions: 1 2 3 4 5 6 7 8 9 10 11 12 13 14 15 16 17 18 19 20 21 22 23 24 25
282
FTUS46 KMTR 050302 AAA
TAFSFO
TAF AMD
KSFO 050302Z 0503/0606 24009KT P6SM FEW018 SCT100 BKN150
     FM050600 24008KT P6SM BKN020 OVC150
     FM050800 23006KT P6SM BKN015
     FM051600 22007KT P6SM SCT014 BKN025
     FM052100 24008KT P6SM VCSH SCT035 BKN100
     FM052300 25013KT P6SM VCSH SCT035 BKN100=

USA.gov is the U.S. government's official web portal to all federal, state and local government web resources and services.